Time;durP1;ratioP1;P1;durP2;ratioP2;P2;SDS_P1;SDS_P2;PMS_P1;PMS_P2;Temp;Humidity;BMP_temperature;BMP_pressure;BME280_temperature;BME280_humidity;BME280_pressure;Samples;Min_cycle;Max_cycle;Signal;HPM_P1;HPM_P2
2021/01/08 00:00:22;;;;;;;;;;;13.10;86.50;;;;;;2093984;28;938;-54
2021/01/08 00:01:42;;;;;;;;;;;13.10;85.90;;;;;;2083706;28;944;-53
2021/01/08 00:03:01;;;;;;;;;;;13.10;86.70;;;;;;2098039;28;1046;-54
2021/01/08 00:04:21;;;;;;;;;;;13.10;85.70;;;;;;2084783;28;801;-53
2021/01/08 00:05:40;;;;;;;;;;;13.10;85.70;;;;;;2086403;28;721;-52
2021/01/08 00:06:59;;;;;;;;;;;13.10;86.00;;;;;;2090160;28;737;-53
2021/01/08 00:08:19;;;;;;;;;;;13.10;86.40;;;;;;2081284;28;2026;-54
2021/01/08 00:09:38;;;;;;;;;;;13.10;86.50;;;;;;2086874;28;726;-51
2021/01/08 00:10:57;;;;;;;;;;;13.10;86.60;;;;;;2090177;28;954;-54
2021/01/08 00:12:16;;;;;;;;;;;13.10;86.50;;;;;;2092726;28;1301;-53
2021/01/08 00:13:36;;;;;;;;;;;13.10;86.60;;;;;;2090134;28;775;-52
2021/01/08 00:14:55;;;;;;;;;;;13.10;86.60;;;;;;2089522;28;710;-53
2021/01/08 00:16:14;;;;;;;;;;;13.10;86.50;;;;;;2090215;28;692;-52
2021/01/08 00:17:33;;;;;;;;;;;13.10;87.30;;;;;;2081459;28;789;-52
2021/01/08 00:18:52;;;;;;;;;;;13.10;87.50;;;;;;2086615;28;765;-51
2021/01/08 00:20:11;;;;;;;;;;;13.10;87.10;;;;;;2090366;28;739;-51
2021/01/08 00:21:34;;;;;;;;;;;13.00;87.00;;;;;;2090270;28;795;-52
2021/01/08 00:22:53;;;;;;;;;;;13.00;87.20;;;;;;2081103;28;745;-53
2021/01/08 00:24:12;;;;;;;;;;;13.00;87.30;;;;;;2086815;28;716;-51
2021/01/08 00:25:32;;;;;;;;;;;13.00;87.50;;;;;;2089517;28;711;-53
2021/01/08 00:26:53;;;;;;;;;;;13.00;87.30;;;;;;2090123;28;708;-52
2021/01/08 00:28:12;;;;;;;;;;;13.00;87.30;;;;;;2087847;28;1437;-51
2021/01/08 00:29:31;;;;;;;;;;;13.00;87.80;;;;;;2077569;28;808;-51
2021/01/08 00:30:51;;;;;;;;;;;13.00;88.60;;;;;;2072132;28;976;-52
2021/01/08 00:32:10;;;;;;;;;;;13.00;88.60;;;;;;2086376;28;1155;-53
2021/01/08 00:33:30;;;;;;;;;;;13.00;87.90;;;;;;2077154;28;792;-52
2021/01/08 00:34:49;;;;;;;;;;;13.00;87.70;;;;;;2083947;28;744;-51
2021/01/08 00:36:08;;;;;;;;;;;12.90;88.10;;;;;;2077689;28;747;-52
2021/01/08 00:37:29;;;;;;;;;;;13.00;88.30;;;;;;2081215;28;754;-53
2021/01/08 00:38:48;;;;;;;;;;;12.90;88.00;;;;;;2087521;28;699;-53
2021/01/08 00:40:08;;;;;;;;;;;12.90;88.30;;;;;;2085250;28;742;-52
2021/01/08 00:41:28;;;;;;;;;;;12.90;88.20;;;;;;2086383;28;742;-54
2021/01/08 00:42:47;;;;;;;;;;;12.90;88.50;;;;;;2087445;28;976;-52
2021/01/08 00:44:06;;;;;;;;;;;12.90;88.50;;;;;;2092777;28;756;-54
2021/01/08 00:45:25;;;;;;;;;;;12.90;89.70;;;;;;2088929;28;752;-54
2021/01/08 00:46:45;;;;;;;;;;;12.90;89.20;;;;;;2087691;28;757;-53
2021/01/08 00:48:04;;;;;;;;;;;12.90;89.10;;;;;;2080906;28;1358;-53
2021/01/08 00:49:24;;;;;;;;;;;12.90;88.80;;;;;;2086419;28;703;-53
2021/01/08 00:50:43;;;;;;;;;;;12.90;88.90;;;;;;2089224;28;1973;-53
2021/01/08 00:52:03;;;;;;;;;;;12.90;88.80;;;;;;2089461;28;733;-53
2021/01/08 00:53:22;;;;;;;;;;;12.90;89.00;;;;;;2089772;28;706;-53
2021/01/08 00:54:44;;;;;;;;;;;12.90;89.10;;;;;;2097336;28;776;-52
2021/01/08 00:56:18;;;;;;;;;;;12.80;89.00;;;;;;2074169;28;786;-53
2021/01/08 00:57:39;;;;;;;;;;;12.80;89.50;;;;;;2081001;28;828;-54
2021/01/08 00:58:59;;;;;;;;;;;12.80;89.50;;;;;;2093906;28;721;-54
2021/01/08 01:00:18;;;;;;;;;;;12.80;89.10;;;;;;2091873;28;916;-54
2021/01/08 01:01:37;;;;;;;;;;;12.80;89.60;;;;;;2089941;28;947;-53
2021/01/08 01:02:57;;;;;;;;;;;12.80;89.30;;;;;;2083855;28;1143;-53
2021/01/08 01:04:16;;;;;;;;;;;12.80;89.80;;;;;;2086124;28;738;-53
2021/01/08 01:05:35;;;;;;;;;;;12.80;89.30;;;;;;2093792;28;729;-53
2021/01/08 01:06:54;;;;;;;;;;;12.80;90.00;;;;;;2098222;28;733;-53
2021/01/08 01:08:14;;;;;;;;;;;12.80;89.70;;;;;;2098123;28;1352;-53
2021/01/08 01:09:33;;;;;;;;;;;12.80;90.30;;;;;;2098035;28;720;-54
2021/01/08 01:10:52;;;;;;;;;;;12.80;89.80;;;;;;2097682;28;745;-53
2021/01/08 01:12:11;;;;;;;;;;;12.80;90.00;;;;;;2098144;28;728;-54
2021/01/08 01:13:30;;;;;;;;;;;12.80;90.00;;;;;;2088921;28;750;-54
2021/01/08 01:14:50;;;;;;;;;;;12.80;90.20;;;;;;2093753;28;698;-53
2021/01/08 01:16:09;;;;;;;;;;;12.80;90.40;;;;;;2097928;28;698;-52
2021/01/08 01:17:29;;;;;;;;;;;12.80;90.50;;;;;;2097843;28;733;-53
2021/01/08 01:18:48;;;;;;;;;;;12.80;90.20;;;;;;2097968;28;686;-53
2021/01/08 01:20:08;;;;;;;;;;;12.80;90.20;;;;;;2089093;28;740;-51
2021/01/08 01:21:27;;;;;;;;;;;12.70;90.20;;;;;;2094294;28;724;-53
2021/01/08 01:22:46;;;;;;;;;;;12.70;90.20;;;;;;2097539;28;705;-53
2021/01/08 01:24:05;;;;;;;;;;;12.70;90.20;;;;;;2097991;28;711;-52
2021/01/08 01:25:24;;;;;;;;;;;12.80;90.30;;;;;;2097150;28;724;-53
2021/01/08 01:26:44;;;;;;;;;;;12.70;90.40;;;;;;2081143;28;734;-53
2021/01/08 01:28:03;;;;;;;;;;;12.80;90.40;;;;;;2090959;28;1853;-52
2021/01/08 01:29:22;;;;;;;;;;;12.70;90.40;;;;;;2097575;28;724;-53
2021/01/08 01:30:41;;;;;;;;;;;12.70;90.40;;;;;;2092543;28;1910;-54
2021/01/08 01:32:00;;;;;;;;;;;12.70;90.40;;;;;;2092814;28;1156;-54
2021/01/08 01:33:20;;;;;;;;;;;12.70;90.80;;;;;;2088284;28;1040;-54
2021/01/08 01:34:39;;;;;;;;;;;12.70;90.80;;;;;;2094467;28;735;-53
2021/01/08 01:35:58;;;;;;;;;;;12.70;90.50;;;;;;2097882;28;729;-54
2021/01/08 01:37:17;;;;;;;;;;;12.70;90.60;;;;;;2080582;28;799;-53
2021/01/08 01:38:37;;;;;;;;;;;12.70;90.60;;;;;;2091315;28;1494;-53
2021/01/08 01:39:56;;;;;;;;;;;12.70;90.60;;;;;;2088719;28;756;-54
2021/01/08 01:41:15;;;;;;;;;;;12.70;90.70;;;;;;2085643;28;733;-54
2021/01/08 01:42:34;;;;;;;;;;;12.70;90.80;;;;;;2094512;28;859;-55
2021/01/08 01:43:53;;;;;;;;;;;12.70;90.80;;;;;;2097814;28;717;-50
2021/01/08 01:45:13;;;;;;;;;;;12.60;90.70;;;;;;2096991;28;716;-53
2021/01/08 01:46:32;;;;;;;;;;;12.60;90.80;;;;;;2097850;28;699;-54
2021/01/08 01:47:51;;;;;;;;;;;12.70;90.90;;;;;;2088833;28;1364;-51
2021/01/08 01:49:10;;;;;;;;;;;12.60;90.90;;;;;;2102483;28;770;-53
2021/01/08 01:50:30;;;;;;;;;;;12.60;90.80;;;;;;2100686;28;1906;-53
2021/01/08 01:51:49;;;;;;;;;;;12.60;90.80;;;;;;2088853;28;775;-53
2021/01/08 01:53:08;;;;;;;;;;;12.60;91.00;;;;;;2094261;28;803;-53
2021/01/08 01:54:27;;;;;;;;;;;12.60;91.00;;;;;;2088846;28;739;-53
2021/01/08 01:55:47;;;;;;;;;;;12.60;91.20;;;;;;2094181;28;743;-54
2021/01/08 01:57:06;;;;;;;;;;;12.60;91.00;;;;;;2097534;28;702;-53
2021/01/08 01:58:26;;;;;;;;;;;12.60;90.80;;;;;;2097734;28;1345;-53
2021/01/08 01:59:45;;;;;;;;;;;12.60;91.00;;;;;;2088910;28;815;-54
2021/01/08 02:01:04;;;;;;;;;;;12.60;91.40;;;;;;2088180;28;1124;-53
2021/01/08 02:02:25;;;;;;;;;;;12.60;91.00;;;;;;2083981;28;1031;-51
2021/01/08 02:03:45;;;;;;;;;;;12.60;91.10;;;;;;2086147;28;723;-53
2021/01/08 02:05:05;;;;;;;;;;;12.60;91.10;;;;;;2082158;28;1320;-53
2021/01/08 02:06:26;;;;;;;;;;;12.60;91.30;;;;;;2093997;28;711;-53
2021/01/08 02:07:47;;;;;;;;;;;12.50;91.50;;;;;;2083680;28;1249;-53
2021/01/08 02:09:07;;;;;;;;;;;12.50;91.30;;;;;;2077786;28;812;-54
2021/01/08 02:10:27;;;;;;;;;;;12.50;91.30;;;;;;2080944;28;1971;-53
2021/01/08 02:11:47;;;;;;;;;;;12.60;91.30;;;;;;2081138;28;986;-53
2021/01/08 02:13:06;;;;;;;;;;;12.50;91.40;;;;;;2072387;28;721;-53
2021/01/08 02:14:27;;;;;;;;;;;12.50;91.40;;;;;;2085549;28;725;-51
2021/01/08 02:15:46;;;;;;;;;;;12.50;91.40;;;;;;2083992;28;702;-54
2021/01/08 02:17:05;;;;;;;;;;;12.50;91.40;;;;;;2072545;28;751;-51
2021/01/08 02:18:24;;;;;;;;;;;12.50;91.30;;;;;;2077881;28;1364;-52
2021/01/08 02:19:47;;;;;;;;;;;12.50;91.70;;;;;;2080403;28;797;-52
2021/01/08 02:21:07;;;;;;;;;;;12.50;91.50;;;;;;2080847;28;714;-52
2021/01/08 02:22:27;;;;;;;;;;;12.50;91.60;;;;;;2080986;28;741;-51
2021/01/08 02:23:52;;;;;;;;;;;12.50;91.60;;;;;;2072442;28;771;-52
2021/01/08 02:25:11;;;;;;;;;;;12.50;91.50;;;;;;2077955;28;732;-54
2021/01/08 02:26:30;;;;;;;;;;;12.50;91.60;;;;;;2080942;28;766;-52
2021/01/08 02:28:04;;;;;;;;;;;12.50;91.70;;;;;;2072234;28;1323;-53
2021/01/08 02:29:24;;;;;;;;;;;12.50;91.70;;;;;;2079291;28;721;-53
2021/01/08 02:30:44;;;;;;;;;;;12.50;91.70;;;;;;2098691;28;1910;-53
2021/01/08 02:32:03;;;;;;;;;;;12.40;91.70;;;;;;2086141;28;1087;-53
2021/01/08 02:33:23;;;;;;;;;;;12.40;91.70;;;;;;2101938;28;1082;-53
2021/01/08 02:34:42;;;;;;;;;;;12.40;91.80;;;;;;2091755;28;722;-53
2021/01/08 02:36:01;;;;;;;;;;;12.40;91.80;;;;;;2102029;28;719;-53
2021/01/08 02:37:20;;;;;;;;;;;12.40;91.80;;;;;;2100441;28;740;-53
2021/01/08 02:38:39;;;;;;;;;;;12.50;91.50;;;;;;2088639;28;1381;-54
2021/01/08 02:39:59;;;;;;;;;;;12.40;91.60;;;;;;2102019;28;811;-53
2021/01/08 02:41:18;;;;;;;;;;;12.40;92.00;;;;;;2100554;28;724;-54
2021/01/08 02:42:37;;;;;;;;;;;12.50;92.00;;;;;;2097533;28;761;-54
2021/01/08 02:43:56;;;;;;;;;;;12.40;91.90;;;;;;2097436;28;780;-53
2021/01/08 02:45:15;;;;;;;;;;;12.50;92.10;;;;;;2079794;28;788;-53
2021/01/08 02:46:35;;;;;;;;;;;12.50;92.00;;;;;;2090710;28;755;-53
2021/01/08 02:47:54;;;;;;;;;;;12.60;91.90;;;;;;2097458;28;1380;-53
2021/01/08 02:49:13;;;;;;;;;;;12.60;91.50;;;;;;2088577;28;726;-53
2021/01/08 02:50:33;;;;;;;;;;;12.70;91.40;;;;;;2093916;28;1906;-52
2021/01/08 02:51:52;;;;;;;;;;;12.70;91.00;;;;;;2097597;28;731;-52
2021/01/08 02:53:15;;;;;;;;;;;12.80;90.70;;;;;;2097399;28;768;-52
2021/01/08 02:54:34;;;;;;;;;;;12.80;90.40;;;;;;2096969;28;771;-51
2021/01/08 02:55:53;;;;;;;;;;;12.90;90.20;;;;;;2097315;28;798;-52
2021/01/08 02:57:12;;;;;;;;;;;12.90;90.20;;;;;;2088748;28;755;-54
2021/01/08 02:58:32;;;;;;;;;;;13.00;89.20;;;;;;2102127;28;1361;-54
2021/01/08 02:59:52;;;;;;;;;;;13.10;88.50;;;;;;2091372;28;1038;-55
2021/01/08 03:01:11;;;;;;;;;;;13.10;87.80;;;;;;2092066;28;1047;-53
2021/01/08 03:02:30;;;;;;;;;;;13.20;87.30;;;;;;2090044;28;1052;-53
2021/01/08 03:03:49;;;;;;;;;;;13.20;86.60;;;;;;2080270;28;763;-54
2021/01/08 03:05:09;;;;;;;;;;;13.30;86.10;;;;;;2089886;28;701;-54
2021/01/08 03:06:28;;;;;;;;;;;13.30;85.30;;;;;;2088421;28;734;-51
2021/01/08 03:07:47;;;;;;;;;;;13.30;84.90;;;;;;2101543;28;745;-53
2021/01/08 03:09:06;;;;;;;;;;;13.40;84.70;;;;;;2102172;28;725;-53
2021/01/08 03:10:25;;;;;;;;;;;13.40;84.60;;;;;;2089648;28;1894;-54
2021/01/08 03:11:54;;;;;;;;;;;13.30;84.30;;;;;;2103452;28;720;-53
2021/01/08 03:13:13;;;;;;;;;;;13.40;84.40;;;;;;2088359;28;2274;-52
2021/01/08 03:14:32;;;;;;;;;;;13.40;84.30;;;;;;2088110;28;814;-54
2021/01/08 03:15:51;;;;;;;;;;;13.30;84.50;;;;;;2090265;28;1008;-54
2021/01/08 03:17:11;;;;;;;;;;;13.30;84.70;;;;;;2090466;28;1189;-52
2021/01/08 03:18:30;;;;;;;;;;;13.30;84.70;;;;;;2082327;28;1396;-53
2021/01/08 03:19:49;;;;;;;;;;;13.30;84.80;;;;;;2103258;28;738;-54
2021/01/08 03:21:09;;;;;;;;;;;13.30;85.70;;;;;;2102006;28;710;-51
2021/01/08 03:22:28;;;;;;;;;;;13.30;85.80;;;;;;2081468;28;773;-53
2021/01/08 03:23:47;;;;;;;;;;;13.30;85.20;;;;;;2099897;28;733;-52
2021/01/08 03:25:06;;;;;;;;;;;13.30;85.50;;;;;;2101298;28;754;-52
2021/01/08 03:26:25;;;;;;;;;;;13.20;85.60;;;;;;2082252;28;945;-55
2021/01/08 03:27:44;;;;;;;;;;;13.20;85.80;;;;;;2098407;28;1150;-53
2021/01/08 03:29:04;;;;;;;;;;;13.20;86.00;;;;;;2098667;28;1074;-53
2021/01/08 03:30:23;;;;;;;;;;;13.20;86.10;;;;;;2081260;28;1910;-52
2021/01/08 03:31:42;;;;;;;;;;;13.20;86.40;;;;;;2092763;28;892;-51
2021/01/08 03:33:02;;;;;;;;;;;13.20;86.50;;;;;;2086494;28;1291;-51
2021/01/08 03:34:21;;;;;;;;;;;13.10;86.70;;;;;;2095094;28;741;-53
2021/01/08 03:35:40;;;;;;;;;;;13.20;87.10;;;;;;2098164;28;1040;-53
2021/01/08 03:36:59;;;;;;;;;;;13.10;87.20;;;;;;2089917;28;751;-52
2021/01/08 03:38:19;;;;;;;;;;;13.10;87.10;;;;;;2086389;28;1352;-53
2021/01/08 03:39:38;;;;;;;;;;;13.10;88.20;;;;;;2095570;28;689;-52
2021/01/08 03:40:57;;;;;;;;;;;13.10;87.60;;;;;;2084829;28;1180;-53
2021/01/08 03:42:16;;;;;;;;;;;13.00;87.80;;;;;;2086367;28;1354;-53
2021/01/08 03:43:36;;;;;;;;;;;13.00;88.20;;;;;;2088383;28;1182;-52
2021/01/08 03:44:55;;;;;;;;;;;13.00;88.40;;;;;;2081969;28;1433;-53
2021/01/08 03:46:14;;;;;;;;;;;13.00;88.60;;;;;;2092794;28;1568;-54
2021/01/08 03:47:34;;;;;;;;;;;13.00;88.80;;;;;;2093477;28;1231;-53
2021/01/08 03:48:53;;;;;;;;;;;13.00;89.10;;;;;;2097500;28;1441;-52
2021/01/08 03:50:12;;;;;;;;;;;13.00;89.10;;;;;;2096784;28;1910;-53
2021/01/08 03:51:31;;;;;;;;;;;12.90;89.50;;;;;;2093315;28;1308;-54
2021/01/08 03:52:51;;;;;;;;;;;13.00;89.70;;;;;;2096314;28;1395;-53
2021/01/08 03:54:10;;;;;;;;;;;13.00;89.70;;;;;;2094902;28;1311;-53
2021/01/08 03:55:29;;;;;;;;;;;12.90;89.70;;;;;;2082434;28;1341;-54
2021/01/08 03:56:49;;;;;;;;;;;12.90;90.10;;;;;;2094304;28;1358;-53
2021/01/08 03:58:08;;;;;;;;;;;12.90;90.30;;;;;;2097586;28;1490;-52
2021/01/08 03:59:27;;;;;;;;;;;12.90;90.20;;;;;;2088547;28;850;-54
2021/01/08 04:00:46;;;;;;;;;;;12.90;90.30;;;;;;2094038;28;1144;-54
2021/01/08 04:02:05;;;;;;;;;;;12.80;90.30;;;;;;2096227;28;1186;-53
2021/01/08 04:03:24;;;;;;;;;;;12.90;90.30;;;;;;2095001;28;1328;-53
2021/01/08 04:04:44;;;;;;;;;;;12.80;90.40;;;;;;2096524;28;1409;-54
2021/01/08 04:06:03;;;;;;;;;;;12.80;90.60;;;;;;2087765;28;1150;-53
2021/01/08 04:07:22;;;;;;;;;;;12.80;90.60;;;;;;2090339;28;2057;-54
2021/01/08 04:08:41;;;;;;;;;;;12.80;90.60;;;;;;2092487;28;1424;-53
2021/01/08 04:10:01;;;;;;;;;;;12.80;90.80;;;;;;2095012;28;1915;-54
2021/01/08 04:11:20;;;;;;;;;;;12.80;90.60;;;;;;2095463;28;1455;-53
2021/01/08 04:12:39;;;;;;;;;;;12.80;91.00;;;;;;2093230;28;1326;-53
2021/01/08 04:13:59;;;;;;;;;;;12.80;90.80;;;;;;2104466;28;1394;-54
2021/01/08 04:15:18;;;;;;;;;;;12.80;90.90;;;;;;2098304;28;1315;-53
2021/01/08 04:16:38;;;;;;;;;;;12.80;91.00;;;;;;2088583;28;1260;-53
2021/01/08 04:17:57;;;;;;;;;;;12.70;91.40;;;;;;2083369;28;1512;-53
2021/01/08 04:19:16;;;;;;;;;;;12.70;91.20;;;;;;2092673;28;1306;-53
2021/01/08 04:20:35;;;;;;;;;;;12.70;91.10;;;;;;2096940;28;1285;-53
2021/01/08 04:21:55;;;;;;;;;;;12.70;91.30;;;;;;2081218;28;1407;-53
2021/01/08 04:23:14;;;;;;;;;;;12.70;91.40;;;;;;2091427;28;1240;-54
2021/01/08 04:24:33;;;;;;;;;;;12.70;91.30;;;;;;2096475;28;1407;-53
2021/01/08 04:25:52;;;;;;;;;;;12.60;91.30;;;;;;2090711;28;1292;-53
2021/01/08 04:27:12;;;;;;;;;;;12.60;91.50;;;;;;2095659;28;1278;-53
2021/01/08 04:28:31;;;;;;;;;;;12.60;91.40;;;;;;2090654;28;1440;-53
2021/01/08 04:29:50;;;;;;;;;;;12.60;91.70;;;;;;2091613;28;1247;-55
2021/01/08 04:31:09;;;;;;;;;;;12.60;91.60;;;;;;2097579;28;1473;-52
2021/01/08 04:32:28;;;;;;;;;;;12.60;91.60;;;;;;2086695;28;1199;-54
2021/01/08 04:33:48;;;;;;;;;;;12.60;91.60;;;;;;2093396;28;1772;-53
2021/01/08 04:35:07;;;;;;;;;;;12.60;91.80;;;;;;2083496;28;1396;-53
2021/01/08 04:36:26;;;;;;;;;;;12.60;92.10;;;;;;2087017;28;1208;-53
2021/01/08 04:37:46;;;;;;;;;;;12.60;91.90;;;;;;2092008;28;1273;-53
2021/01/08 04:39:05;;;;;;;;;;;12.60;91.90;;;;;;2082838;28;1332;-53
2021/01/08 04:40:24;;;;;;;;;;;12.70;92.00;;;;;;2089212;28;1294;-53
2021/01/08 04:41:43;;;;;;;;;;;12.70;91.80;;;;;;2079395;28;1191;-53
2021/01/08 04:43:03;;;;;;;;;;;12.80;91.60;;;;;;2085748;28;1311;-53
2021/01/08 04:44:22;;;;;;;;;;;12.80;91.30;;;;;;2090984;28;1171;-51
2021/01/08 04:45:41;;;;;;;;;;;12.90;91.10;;;;;;2070294;28;902;-58
2021/01/08 04:47:00;;;;;;;;;;;13.00;91.00;;;;;;2073863;28;789;-54
2021/01/08 04:48:19;;;;;;;;;;;13.00;90.40;;;;;;2090542;28;1372;-53
2021/01/08 04:49:39;;;;;;;;;;;13.10;90.50;;;;;;2080205;28;745;-54
2021/01/08 04:50:58;;;;;;;;;;;13.20;90.10;;;;;;2094413;28;745;-50
2021/01/08 04:52:17;;;;;;;;;;;13.30;89.90;;;;;;2092676;28;778;-53
2021/01/08 04:53:37;;;;;;;;;;;13.40;90.10;;;;;;2102557;28;754;-52
2021/01/08 04:54:56;;;;;;;;;;;13.40;87.60;;;;;;2091633;28;745;-52
2021/01/08 04:56:15;;;;;;;;;;;13.50;87.00;;;;;;2094244;28;716;-52
2021/01/08 04:57:34;;;;;;;;;;;13.50;86.60;;;;;;2078649;28;1291;-52
2021/01/08 04:58:54;;;;;;;;;;;13.50;86.20;;;;;;2084051;28;1338;-52
2021/01/08 05:00:13;;;;;;;;;;;13.50;86.10;;;;;;2088545;28;1308;-52
2021/01/08 05:01:33;;;;;;;;;;;13.50;85.90;;;;;;2083602;28;1231;-53
2021/01/08 05:02:52;;;;;;;;;;;13.50;85.70;;;;;;2087748;28;1068;-52
2021/01/08 05:04:11;;;;;;;;;;;13.50;85.70;;;;;;2091538;28;1388;-52
2021/01/08 05:05:30;;;;;;;;;;;13.50;85.60;;;;;;2080334;28;1423;-52
2021/01/08 05:06:50;;;;;;;;;;;13.50;85.60;;;;;;2086520;28;1176;-52
2021/01/08 05:08:09;;;;;;;;;;;13.50;85.30;;;;;;2078764;28;1380;-52
2021/01/08 05:09:28;;;;;;;;;;;13.50;85.50;;;;;;2080597;28;1239;-54
2021/01/08 05:10:47;;;;;;;;;;;13.50;86.20;;;;;;2085992;28;1956;-52
2021/01/08 05:12:07;;;;;;;;;;;13.50;86.20;;;;;;2079392;28;1183;-52
2021/01/08 05:13:33;;;;;;;;;;;13.50;85.70;;;;;;2087186;28;1219;-52
2021/01/08 05:14:52;;;;;;;;;;;13.50;85.50;;;;;;2071602;28;1061;-53
2021/01/08 05:16:11;;;;;;;;;;;13.50;85.50;;;;;;2076304;28;1184;-53
2021/01/08 05:17:30;;;;;;;;;;;13.50;85.60;;;;;;2077307;28;1308;-51
2021/01/08 05:18:50;;;;;;;;;;;13.50;85.90;;;;;;2086131;28;1376;-51
2021/01/08 05:20:09;;;;;;;;;;;13.50;85.90;;;;;;2089581;28;1346;-52
2021/01/08 05:21:29;;;;;;;;;;;13.50;86.60;;;;;;2089259;28;1389;-53
2021/01/08 05:22:49;;;;;;;;;;;13.50;86.00;;;;;;2089411;28;1398;-52
2021/01/08 05:24:08;;;;;;;;;;;13.50;86.30;;;;;;2082636;28;1280;-52
2021/01/08 05:25:28;;;;;;;;;;;13.40;86.10;;;;;;2082168;28;1313;-53
2021/01/08 05:26:47;;;;;;;;;;;13.40;86.20;;;;;;2080329;28;1266;-52
2021/01/08 05:28:06;;;;;;;;;;;13.40;86.40;;;;;;2085761;28;1487;-53
2021/01/08 05:29:27;;;;;;;;;;;13.40;86.40;;;;;;2080768;28;1120;-52
2021/01/08 05:30:46;;;;;;;;;;;13.40;86.60;;;;;;2085947;28;1971;-53
2021/01/08 05:32:05;;;;;;;;;;;13.40;86.70;;;;;;2090886;28;1376;-53
2021/01/08 05:33:25;;;;;;;;;;;13.40;86.90;;;;;;2083902;28;1190;-53
2021/01/08 05:34:44;;;;;;;;;;;13.40;87.60;;;;;;2078261;28;1385;-51
2021/01/08 05:36:03;;;;;;;;;;;13.40;87.80;;;;;;2080710;28;1286;-53
2021/01/08 05:37:22;;;;;;;;;;;13.40;87.20;;;;;;2077856;28;1218;-54
2021/01/08 05:38:42;;;;;;;;;;;13.40;87.30;;;;;;2079476;28;1376;-53
2021/01/08 05:40:03;;;;;;;;;;;13.30;87.60;;;;;;2081227;28;1356;-54
2021/01/08 05:41:22;;;;;;;;;;;13.40;87.70;;;;;;2088601;28;1172;-53
2021/01/08 05:42:57;;;;;;;;;;;13.30;87.90;;;;;;2079750;28;1299;-53
2021/01/08 05:44:16;;;;;;;;;;;13.30;87.90;;;;;;2081349;28;1337;-53
2021/01/08 05:45:36;;;;;;;;;;;13.30;88.10;;;;;;2083528;28;968;-53
2021/01/08 05:46:55;;;;;;;;;;;13.30;88.20;;;;;;2088917;28;1245;-54
2021/01/08 05:48:14;;;;;;;;;;;13.20;88.20;;;;;;2080937;28;1415;-53
2021/01/08 05:49:33;;;;;;;;;;;13.30;88.50;;;;;;2071732;28;1393;-53
2021/01/08 05:50:53;;;;;;;;;;;13.30;88.80;;;;;;2077907;28;1902;-54
2021/01/08 05:52:12;;;;;;;;;;;13.20;89.40;;;;;;2075817;28;1281;-55
2021/01/08 05:53:32;;;;;;;;;;;13.20;89.00;;;;;;2086042;28;1158;-54
2021/01/08 05:54:51;;;;;;;;;;;13.20;88.90;;;;;;2080084;28;1169;-54
2021/01/08 05:56:16;;;;;;;;;;;13.20;89.30;;;;;;2071992;28;1373;-54
2021/01/08 05:57:36;;;;;;;;;;;13.20;89.30;;;;;;2082064;28;1139;-55
2021/01/08 05:58:55;;;;;;;;;;;13.20;89.60;;;;;;2081544;28;1039;-54
2021/01/08 06:00:14;;;;;;;;;;;13.20;89.80;;;;;;2085220;28;1271;-53
2021/01/08 06:01:34;;;;;;;;;;;13.10;90.00;;;;;;2083347;28;1248;-55
2021/01/08 06:02:54;;;;;;;;;;;13.10;90.30;;;;;;2082524;28;1381;-55
2021/01/08 06:04:13;;;;;;;;;;;13.20;90.00;;;;;;2082354;28;1296;-53
2021/01/08 06:05:33;;;;;;;;;;;13.10;90.20;;;;;;2088657;28;1385;-56
2021/01/08 06:06:52;;;;;;;;;;;13.10;90.20;;;;;;2074554;28;1556;-55
2021/01/08 06:08:11;;;;;;;;;;;13.10;90.20;;;;;;2082832;28;1507;-54
2021/01/08 06:09:30;;;;;;;;;;;13.10;90.40;;;;;;2091064;28;1302;-54
2021/01/08 06:10:50;;;;;;;;;;;13.10;90.40;;;;;;2080290;28;1898;-54
2021/01/08 06:12:10;;;;;;;;;;;13.10;90.40;;;;;;2069702;28;1189;-55
2021/01/08 06:13:33;;;;;;;;;;;13.10;90.40;;;;;;2069113;28;1139;-54
2021/01/08 06:14:52;;;;;;;;;;;13.10;90.30;;;;;;2077538;28;1490;-53
2021/01/08 06:16:15;;;;;;;;;;;13.10;90.20;;;;;;2069757;28;1349;-54
2021/01/08 06:17:35;;;;;;;;;;;13.20;90.30;;;;;;2075847;28;1391;-57
2021/01/08 06:18:55;;;;;;;;;;;13.10;90.10;;;;;;2080037;28;1332;-56
2021/01/08 06:20:14;;;;;;;;;;;13.10;90.20;;;;;;2093005;28;1428;-53
2021/01/08 06:21:34;;;;;;;;;;;13.10;90.10;;;;;;2084679;28;1411;-54
2021/01/08 06:22:53;;;;;;;;;;;13.10;90.20;;;;;;2085205;28;1177;-57
2021/01/08 06:24:21;;;;;;;;;;;13.10;90.10;;;;;;2092682;28;1328;-53
2021/01/08 06:25:41;;;;;;;;;;;13.10;90.50;;;;;;2089217;28;1438;-54
2021/01/08 06:27:00;;;;;;;;;;;13.10;90.30;;;;;;2080548;28;1483;-55
2021/01/08 06:28:19;;;;;;;;;;;13.10;90.30;;;;;;2077364;28;1429;-52
2021/01/08 06:29:39;;;;;;;;;;;13.10;90.20;;;;;;2075985;28;1179;-53
2021/01/08 06:30:58;;;;;;;;;;;13.10;90.30;;;;;;2080178;28;1975;-53
2021/01/08 06:32:17;;;;;;;;;;;13.10;90.50;;;;;;2078498;28;1141;-53
2021/01/08 06:33:37;;;;;;;;;;;13.10;90.30;;;;;;2082919;28;1256;-53
2021/01/08 06:35:04;;;;;;;;;;;13.10;90.40;;;;;;2080324;28;1219;-54
2021/01/08 06:36:30;;;;;;;;;;;13.10;90.30;;;;;;2090090;28;1214;-56
2021/01/08 06:37:49;;;;;;;;;;;13.10;90.60;;;;;;2088955;28;1176;-53
2021/01/08 06:39:11;;;;;;;;;;;13.10;90.70;;;;;;2080990;28;1290;-56
2021/01/08 06:40:40;;;;;;;;;;;13.10;90.60;;;;;;2075537;28;1269;-55
2021/01/08 06:42:01;;;;;;;;;;;13.00;90.50;;;;;;2086731;28;1145;-53
2021/01/08 06:43:20;;;;;;;;;;;13.00;90.60;;;;;;2081952;28;1302;-52
2021/01/08 06:44:39;;;;;;;;;;;13.00;90.60;;;;;;2076310;28;1322;-57
2021/01/08 06:45:58;;;;;;;;;;;13.00;90.80;;;;;;2090481;28;956;-53
2021/01/08 06:47:19;;;;;;;;;;;13.00;90.80;;;;;;2097805;28;1046;-54
2021/01/08 06:48:38;;;;;;;;;;;13.00;90.80;;;;;;2090490;28;1346;-53
2021/01/08 06:49:58;;;;;;;;;;;13.00;90.90;;;;;;2103385;28;742;-55
2021/01/08 06:51:17;;;;;;;;;;;13.00;91.40;;;;;;2083930;28;1313;-53
2021/01/08 06:52:36;;;;;;;;;;;13.00;91.20;;;;;;2078769;28;1247;-54
2021/01/08 06:53:57;;;;;;;;;;;13.00;90.60;;;;;;2081780;28;1358;-52
2021/01/08 06:55:17;;;;;;;;;;;12.90;89.40;;;;;;2086135;28;1175;-53
2021/01/08 06:56:43;;;;;;;;;;;12.90;89.50;;;;;;2090877;28;1332;-51
2021/01/08 06:58:02;;;;;;;;;;;12.90;90.00;;;;;;2081064;28;1371;-55
2021/01/08 06:59:21;;;;;;;;;;;12.90;90.00;;;;;;2086838;28;1348;-54
2021/01/08 07:00:41;;;;;;;;;;;12.90;90.40;;;;;;2090108;28;1321;-57
2021/01/08 07:02:03;;;;;;;;;;;12.90;90.20;;;;;;2083644;28;1269;-57
2021/01/08 07:03:23;;;;;;;;;;;12.90;90.20;;;;;;2091791;28;1235;-54
2021/01/08 07:04:42;;;;;;;;;;;12.90;90.10;;;;;;2079154;28;1442;-54
2021/01/08 07:06:01;;;;;;;;;;;12.90;90.20;;;;;;2099742;28;1736;-54
2021/01/08 07:07:24;;;;;;;;;;;12.90;90.30;;;;;;2077730;28;1227;-54
2021/01/08 07:08:43;;;;;;;;;;;12.90;90.40;;;;;;2082298;28;1420;-53
2021/01/08 07:10:02;;;;;;;;;;;12.90;90.40;;;;;;2074163;28;1942;-53
2021/01/08 07:11:25;;;;;;;;;;;12.80;90.80;;;;;;2086058;28;1133;-56
2021/01/08 07:12:45;;;;;;;;;;;12.80;90.50;;;;;;2081780;28;1346;-54
2021/01/08 07:14:11;;;;;;;;;;;12.80;90.60;;;;;;2077027;28;1418;-55
2021/01/08 07:15:31;;;;;;;;;;;12.80;90.70;;;;;;2079148;28;1347;-53
2021/01/08 07:16:53;;;;;;;;;;;12.80;90.80;;;;;;2097940;28;1162;-54
2021/01/08 07:18:13;;;;;;;;;;;12.80;91.00;;;;;;2084921;28;1570;-53
2021/01/08 07:19:32;;;;;;;;;;;12.80;90.80;;;;;;2086778;28;1425;-54
2021/01/08 07:20:55;;;;;;;;;;;12.80;91.00;;;;;;2095342;28;1088;-55
2021/01/08 07:22:17;;;;;;;;;;;12.80;91.00;;;;;;2076253;28;1280;-54
2021/01/08 07:23:36;;;;;;;;;;;12.90;91.00;;;;;;2093099;28;1341;-53
2021/01/08 07:24:56;;;;;;;;;;;12.90;91.00;;;;;;2075586;28;1165;-54
2021/01/08 07:26:18;;;;;;;;;;;12.90;90.80;;;;;;2078364;28;1374;-53
2021/01/08 07:27:37;;;;;;;;;;;12.90;90.70;;;;;;2087639;28;1279;-52
2021/01/08 07:28:56;;;;;;;;;;;12.90;91.10;;;;;;2091324;28;1302;-57
2021/01/08 07:30:15;;;;;;;;;;;12.90;90.90;;;;;;2083609;28;1938;-54
2021/01/08 07:31:36;;;;;;;;;;;12.90;90.00;;;;;;2085193;28;1228;-54
2021/01/08 07:32:56;;;;;;;;;;;12.70;70.00;;;;;;2090309;28;1332;-52
2021/01/08 07:34:15;;;;;;;;;;;12.60;75.90;;;;;;2090364;28;1222;-52
2021/01/08 07:35:34;;;;;;;;;;;12.50;77.00;;;;;;2090866;28;1412;-53
2021/01/08 07:36:53;;;;;;;;;;;12.60;76.00;;;;;;2090177;28;1184;-51
2021/01/08 07:38:16;;;;;;;;;;;12.50;75.00;;;;;;2089357;28;1504;-57
2021/01/08 07:39:37;;;;;;;;;;;12.60;75.60;;;;;;2084605;28;1276;-53
2021/01/08 07:40:56;;;;;;;;;;;12.60;75.80;;;;;;2087501;28;1284;-54
2021/01/08 07:42:34;;;;;;;;;;;12.60;76.10;;;;;;2090781;28;1435;-52
2021/01/08 07:43:53;;;;;;;;;;;12.60;76.10;;;;;;2089586;28;1180;-55
2021/01/08 07:45:12;;;;;;;;;;;12.60;75.90;;;;;;2080406;28;1306;-55
2021/01/08 07:46:32;;;;;;;;;;;12.60;76.60;;;;;;2083156;28;1244;-57
2021/01/08 07:47:51;;;;;;;;;;;12.60;76.00;;;;;;2092528;28;1199;-53
2021/01/08 07:49:11;;;;;;;;;;;12.70;76.20;;;;;;2079487;28;1366;-54
2021/01/08 07:50:30;;;;;;;;;;;12.70;76.30;;;;;;2086001;28;1977;-54
2021/01/08 07:51:49;;;;;;;;;;;12.70;76.50;;;;;;2090093;28;1026;-53
2021/01/08 07:53:08;;;;;;;;;;;12.70;76.90;;;;;;2081370;28;1281;-54
2021/01/08 07:54:47;;;;;;;;;;;12.70;77.10;;;;;;2085303;28;1005;-54